Flight Briefing for CMB844

Departure Arrival
Paya Lebar Airport (WSAP)
Click to view FAA NOTAMS
Diego Garcia (FJDG)
Click to view FAA NOTAMS
Departure Time Arrival Time
N/A N/A
Aircraft Distance
B757-200SF 1958nm
Departure METAR Arrival METAR
WSAP 250300Z 20011KT 9999 VCSH FEW018CB FEW020TCU BKN350 31/26 Q1010 FJDG 250255Z 11009KT 9999 FEW019 SCT090 SCT250 29/26 A2986 RMK SLP108 8/132 T02850262 53010
Suggested Route
ASUNA R469 PKU N633 PIBED R212 GUDUG


View recent IFR Routes data
Notes
USTRANSCOM CONTRACT FLIGHT

Charts and Procedures

Charts for WSAP
No chart available
Charts for FJDG
No chart available

Windy.com Weather Map